createdAt,value
2022-09-26T00:00:44.689Z,15.42
2022-09-26T00:03:52.162Z,15.35
2022-09-26T00:06:56.591Z,15.35
2022-09-26T00:09:59.527Z,15.34
2022-09-26T00:13:01.758Z,15.41
2022-09-26T00:16:04.332Z,15.27
2022-09-26T00:19:07.447Z,15.11
2022-09-26T00:22:09.609Z,14.98
2022-09-26T00:25:11.961Z,14.97
2022-09-26T00:28:21.505Z,14.97
2022-09-26T00:31:32.260Z,14.96
2022-09-26T00:34:34.485Z,14.94
2022-09-26T00:37:36.731Z,14.96
2022-09-26T00:40:38.911Z,14.93
2022-09-26T00:43:42.580Z,14.97
2022-09-26T00:46:48.439Z,14.91
2022-09-26T00:49:56.109Z,14.93
2022-09-26T00:53:06.858Z,14.88
2022-09-26T00:56:16.164Z,14.86
2022-09-26T00:59:31.047Z,14.94
2022-09-26T01:02:34.305Z,14.91
2022-09-26T01:05:37.876Z,14.84
2022-09-26T01:08:43.947Z,14.81
2022-09-26T01:11:46.284Z,14.83
2022-09-26T01:14:55.039Z,14.83
2022-09-26T01:17:57.385Z,14.84
2022-09-26T01:21:13.569Z,14.86
2022-09-26T01:24:36.903Z,14.88
2022-09-26T01:27:45.543Z,14.88
2022-09-26T01:30:59.706Z,14.86
2022-09-26T01:34:16.819Z,14.86
2022-09-26T01:37:39.903Z,14.88
2022-09-26T01:41:34.042Z,15.17
2022-09-26T01:44:55.347Z,15.23
2022-09-26T01:48:05.554Z,15.18
2022-09-26T01:51:16.655Z,15.20
2022-09-26T01:54:36.623Z,15.30
2022-09-26T01:57:52.833Z,15.37
2022-09-26T02:00:58.433Z,15.21
2022-09-26T02:04:07.877Z,15.17
2022-09-26T02:07:21.512Z,15.06
2022-09-26T02:10:38.354Z,15.01
2022-09-26T02:13:48.925Z,14.98
2022-09-26T02:16:55.122Z,15.04
2022-09-26T02:20:30.536Z,15.01
2022-09-26T02:23:32.752Z,14.94
2022-09-26T02:26:35.175Z,14.94
2022-09-26T02:29:37.376Z,15.07
2022-09-26T02:32:40.444Z,15.10
2022-09-26T02:35:55.709Z,15.25
2022-09-26T02:39:00.766Z,15.10
2022-09-26T02:42:36.624Z,14.91
2022-09-26T02:45:47.453Z,14.79
2022-09-26T02:48:59.090Z,14.69
2022-09-26T02:52:41.764Z,14.91
2022-09-26T02:56:11.618Z,14.90
2022-09-26T02:59:22.708Z,14.84
2022-09-26T03:02:50.812Z,14.79
2022-09-26T03:05:57.520Z,14.72
2022-09-26T03:09:00.195Z,14.69
2022-09-26T03:12:06.270Z,14.83
2022-09-26T03:15:13.167Z,14.79
2022-09-26T03:18:20.391Z,15.07
2022-09-26T03:21:23.044Z,15.07
2022-09-26T03:24:26.791Z,15.04
2022-09-26T03:27:32.091Z,15.04
2022-09-26T03:30:34.779Z,15.06
2022-09-26T03:33:59.153Z,15.10
2022-09-26T03:37:01.616Z,15.10
2022-09-26T03:40:10.881Z,15.07
2022-09-26T03:43:29.504Z,15.16
2022-09-26T03:46:37.543Z,15.18
2022-09-26T03:49:42.048Z,15.11
2022-09-26T03:52:46.002Z,15.01
2022-09-26T03:55:48.210Z,15.03
2022-09-26T03:58:50.392Z,14.72
2022-09-26T04:01:53.329Z,14.67
2022-09-26T04:04:55.631Z,14.66
2022-09-26T04:07:59.116Z,14.69
2022-09-26T04:11:07.021Z,14.65
2022-09-26T04:14:10.114Z,14.72
2022-09-26T04:17:13.132Z,14.73
2022-09-26T04:20:18.559Z,14.76
2022-09-26T04:23:21.711Z,14.87
2022-09-26T04:26:24.718Z,14.91
2022-09-26T04:29:29.117Z,14.91
2022-09-26T04:32:50.036Z,15.00
2022-09-26T04:35:52.822Z,14.98
2022-09-26T04:38:55.064Z,14.88
2022-09-26T04:41:57.319Z,14.91
2022-09-26T04:44:59.786Z,14.86
2022-09-26T04:48:02.914Z,14.91
2022-09-26T04:51:25.944Z,15.07
2022-09-26T04:54:28.320Z,15.14
2022-09-26T04:57:30.807Z,15.21
2022-09-26T05:00:33.030Z,15.11
2022-09-26T05:03:39.593Z,14.98
2022-09-26T05:06:42.664Z,15.03
2022-09-26T05:09:55.785Z,14.98
2022-09-26T05:12:59.932Z,15.03
2022-09-26T05:16:03.029Z,14.91
2022-09-26T05:19:05.379Z,14.93
2022-09-26T05:22:10.805Z,14.86
2022-09-26T05:25:31.681Z,14.83
2022-09-26T05:28:35.053Z,14.80
2022-09-26T05:31:38.393Z,14.84
2022-09-26T05:34:40.755Z,14.84
2022-09-26T05:37:47.131Z,14.73
2022-09-26T05:41:01.896Z,14.79
2022-09-26T05:44:04.149Z,14.81
2022-09-26T05:47:11.704Z,14.84
2022-09-26T05:50:16.919Z,14.72
2022-09-26T05:53:19.963Z,14.76
2022-09-26T05:56:26.049Z,14.69
2022-09-26T05:59:58.210Z,14.70
2022-09-26T06:03:04.081Z,14.63
2022-09-26T06:06:27.300Z,14.75
2022-09-26T06:09:43.147Z,14.76
2022-09-26T06:12:51.264Z,14.80
2022-09-26T06:16:00.417Z,14.96
2022-09-26T06:19:02.803Z,14.97
2022-09-26T06:22:05.490Z,14.93
2022-09-26T06:25:10.189Z,14.98
2022-09-26T06:28:14.261Z,15.10
2022-09-26T06:31:18.863Z,15.08
2022-09-26T06:34:40.040Z,15.23
2022-09-26T06:38:05.841Z,15.20
2022-09-26T06:41:08.053Z,15.31
2022-09-26T06:44:10.848Z,15.12
2022-09-26T06:47:44.976Z,15.12
2022-09-26T06:51:06.370Z,15.16
2022-09-26T06:54:10.097Z,15.20
2022-09-26T06:57:15.360Z,15.16
2022-09-26T07:00:17.933Z,15.24
2022-09-26T07:03:54.514Z,15.31
2022-09-26T07:07:14.165Z,15.44
2022-09-26T07:10:20.077Z,15.51
2022-09-26T07:13:38.306Z,15.61
2022-09-26T07:16:42.174Z,15.70
2022-09-26T07:20:19.465Z,15.57
2022-09-26T07:23:59.937Z,15.58
2022-09-26T07:27:03.941Z,15.69
2022-09-26T07:30:14.867Z,15.73
2022-09-26T07:33:30.140Z,15.79
2022-09-26T07:36:43.574Z,15.90
2022-09-26T07:39:59.342Z,15.93
2022-09-26T07:43:19.052Z,15.95
2022-09-26T07:46:42.760Z,15.99
2022-09-26T07:50:06.809Z,16.00
2022-09-26T07:53:22.598Z,15.96
2022-09-26T07:56:45.979Z,15.85
2022-09-26T08:00:12.903Z,15.85
2022-09-26T08:03:31.660Z,15.81
2022-09-26T08:06:37.480Z,15.81
2022-09-26T08:09:40.784Z,15.85
2022-09-26T08:12:48.378Z,15.70
2022-09-26T08:16:11.706Z,15.78
2022-09-26T08:19:26.899Z,15.79
2022-09-26T08:22:32.427Z,15.73
2022-09-26T08:25:35.217Z,15.66
2022-09-26T08:28:44.170Z,15.57
2022-09-26T08:31:47.813Z,15.58
2022-09-26T08:34:53.059Z,15.61
2022-09-26T08:38:18.925Z,15.66
2022-09-26T08:41:58.080Z,15.69
2022-09-26T08:46:01.859Z,15.95
2022-09-26T08:49:32.169Z,16.10
2022-09-26T08:52:37.524Z,16.16
2022-09-26T08:55:43.094Z,16.29
2022-09-26T08:58:51.963Z,16.40
2022-09-26T09:02:05.142Z,16.47
2022-09-26T09:05:27.004Z,16.53
2022-09-26T09:08:44.800Z,16.71
2022-09-26T09:12:08.598Z,17.07
2022-09-26T09:15:42.150Z,17.36
2022-09-26T09:19:04.671Z,17.69
2022-09-26T09:22:41.540Z,17.74
2022-09-26T09:29:37.662Z,17.84
2022-09-26T09:33:04.948Z,17.62
2022-09-26T09:36:20.972Z,17.53
2022-09-26T09:39:49.843Z,17.54
2022-09-26T09:43:04.304Z,17.47
2022-09-26T09:46:15.895Z,17.47
2022-09-26T09:49:25.892Z,17.53
2022-09-26T09:52:43.040Z,17.29
2022-09-26T09:55:46.437Z,17.16
2022-09-26T09:58:58.200Z,17.02
2022-09-26T10:02:35.498Z,17.04
2022-09-26T10:05:42.758Z,16.92
2022-09-26T10:08:50.698Z,16.84
2022-09-26T10:12:17.108Z,16.75
2022-09-26T10:15:56.334Z,16.81
2022-09-26T10:19:37.532Z,16.78
2022-09-26T10:22:45.985Z,16.98
2022-09-26T10:26:06.903Z,17.11
2022-09-26T10:29:24.647Z,17.04
2022-09-26T10:32:29.288Z,17.12
2022-09-26T10:35:54.253Z,17.38
2022-09-26T10:39:21.441Z,17.67
2022-09-26T10:42:32.275Z,17.70
2022-09-26T10:45:40.084Z,17.77
2022-09-26T10:49:15.566Z,17.81
2022-09-26T10:52:47.072Z,17.89
2022-09-26T10:55:58.274Z,18.08
2022-09-26T10:59:10.282Z,18.00
2022-09-26T11:02:20.179Z,18.24
2022-09-26T11:05:42.982Z,18.53
2022-09-26T11:08:58.758Z,18.42
2022-09-26T11:12:25.291Z,18.30
2022-09-26T11:15:39.019Z,18.65
2022-09-26T11:18:50.463Z,18.92
2022-09-26T11:22:11.166Z,19.06
2022-09-26T11:25:25.581Z,19.86
2022-09-26T11:28:38.578Z,20.01
2022-09-26T11:32:05.107Z,20.13
2022-09-26T11:35:35.655Z,20.47
2022-09-26T11:39:08.149Z,20.26
2022-09-26T11:42:35.512Z,20.23
2022-09-26T11:46:04.776Z,19.74
2022-09-26T11:50:05.843Z,19.72
2022-09-26T11:53:28.975Z,19.63
2022-09-26T11:56:51.024Z,19.50
2022-09-26T12:00:12.927Z,19.07
2022-09-26T12:03:33.567Z,18.76
2022-09-26T12:06:45.113Z,19.04
2022-09-26T12:10:14.954Z,19.23
2022-09-26T12:13:34.275Z,19.47
2022-09-26T12:17:01.334Z,19.20
2022-09-26T12:20:24.605Z,19.14
2022-09-26T12:23:54.398Z,19.06
2022-09-26T12:27:06.816Z,19.00
2022-09-26T12:30:14.363Z,19.04
2022-09-26T12:33:35.421Z,18.66
2022-09-26T12:36:48.030Z,18.55
2022-09-26T12:39:53.269Z,18.45
2022-09-26T12:43:33.791Z,18.28
2022-09-26T12:47:13.289Z,18.21
2022-09-26T12:50:29.282Z,18.01
2022-09-26T12:53:44.467Z,18.12
2022-09-26T12:56:53.508Z,18.25
2022-09-26T13:00:23.098Z,18.45
2022-09-26T13:03:25.248Z,18.76
2022-09-26T13:06:37.743Z,18.90
2022-09-26T13:09:55.984Z,18.89
2022-09-26T13:13:23.228Z,19.00
2022-09-26T13:16:40.443Z,18.96
2022-09-26T13:20:00.884Z,18.93
2022-09-26T13:23:11.031Z,18.83
2022-09-26T13:26:46.944Z,18.77
2022-09-26T13:29:58.520Z,18.66
2022-09-26T13:33:23.082Z,18.71
2022-09-26T13:36:25.823Z,18.66
2022-09-26T13:39:53.760Z,18.45
2022-09-26T13:43:10.614Z,18.69
2022-09-26T13:46:16.173Z,19.00
2022-09-26T13:49:37.204Z,19.34
2022-09-26T13:52:57.952Z,19.49
2022-09-26T13:56:34.082Z,19.50
2022-09-26T13:59:51.607Z,19.49
2022-09-26T14:03:18.089Z,19.53
2022-09-26T14:06:29.051Z,19.50
2022-09-26T14:09:52.436Z,19.61
2022-09-26T14:13:03.269Z,19.50
2022-09-26T14:16:28.259Z,19.37
2022-09-26T14:19:39.401Z,19.33
2022-09-26T14:22:51.454Z,19.09
2022-09-26T14:25:55.630Z,19.14
2022-09-26T14:29:29.698Z,19.02
2022-09-26T14:32:40.445Z,18.83
2022-09-26T14:35:43.553Z,18.77
2022-09-26T14:38:48.452Z,18.79
2022-09-26T14:41:50.726Z,18.73
2022-09-26T14:44:59.443Z,18.49
2022-09-26T14:48:13.083Z,18.49
2022-09-26T14:51:19.360Z,18.17
2022-09-26T14:54:47.678Z,17.83
2022-09-26T14:57:50.014Z,18.00
2022-09-26T15:00:55.067Z,17.87
2022-09-26T15:04:03.065Z,17.86
2022-09-26T15:07:16.231Z,17.91
2022-09-26T15:10:36.751Z,17.93
2022-09-26T15:13:45.131Z,17.89
2022-09-26T15:16:52.536Z,17.74
2022-09-26T15:19:58.907Z,17.60
2022-09-26T15:23:02.040Z,17.52
2022-09-26T15:26:04.368Z,17.50
2022-09-26T15:29:08.012Z,17.42
2022-09-26T15:32:17.156Z,17.33
2022-09-26T15:35:19.480Z,17.33
2022-09-26T15:38:24.075Z,17.28
2022-09-26T15:41:45.161Z,17.15
2022-09-26T15:45:01.280Z,17.04
2022-09-26T15:48:04.674Z,16.92
2022-09-26T15:51:14.828Z,16.95
2022-09-26T15:54:23.062Z,16.88
2022-09-26T15:57:25.529Z,16.87
2022-09-26T16:00:33.173Z,16.85
2022-09-26T16:03:51.093Z,16.81
2022-09-26T16:07:03.722Z,16.72
2022-09-26T16:10:18.065Z,16.63
2022-09-26T16:13:25.391Z,16.57
2022-09-26T16:16:32.014Z,16.58
2022-09-26T16:19:35.991Z,16.50
2022-09-26T16:22:45.626Z,16.38
2022-09-26T16:25:54.893Z,16.26
2022-09-26T16:28:58.644Z,16.36
2022-09-26T16:32:02.793Z,16.36
2022-09-26T16:35:16.719Z,16.31
2022-09-26T16:38:25.680Z,16.31
2022-09-26T16:42:01.898Z,16.38
2022-09-26T16:45:14.269Z,16.29
2022-09-26T16:48:55.254Z,16.02
2022-09-26T16:52:26.811Z,15.83
2022-09-26T16:55:33.018Z,15.93
2022-09-26T16:58:35.404Z,16.03
2022-09-26T17:01:56.203Z,15.93
2022-09-26T17:04:58.524Z,15.76
2022-09-26T17:08:00.819Z,15.92
2022-09-26T17:11:04.359Z,16.10
2022-09-26T17:14:06.656Z,16.07
2022-09-26T17:17:30.515Z,15.89
2022-09-26T17:20:32.812Z,15.99
2022-09-26T17:23:41.989Z,16.05
2022-09-26T17:27:06.035Z,16.16
2022-09-26T17:30:16.793Z,16.12
2022-09-26T17:33:19.028Z,16.02
2022-09-26T17:36:28.491Z,15.93
2022-09-26T17:39:30.923Z,15.81
2022-09-26T17:42:33.176Z,15.81
2022-09-26T17:45:45.140Z,15.86
2022-09-26T17:48:47.483Z,15.72
2022-09-26T17:51:49.897Z,15.62
2022-09-26T17:54:55.798Z,15.55
2022-09-26T17:57:59.743Z,15.59
2022-09-26T18:01:03.623Z,15.51
2022-09-26T18:04:07.542Z,15.41
2022-09-26T18:07:15.319Z,15.37
2022-09-26T18:10:23.770Z,15.31
2022-09-26T18:13:34.019Z,15.25
2022-09-26T18:16:36.329Z,15.32
2022-09-26T18:19:38.617Z,15.42
2022-09-26T18:22:50.264Z,15.35
2022-09-26T18:25:59.457Z,15.20
2022-09-26T18:29:07.572Z,15.10
2022-09-26T18:32:23.418Z,14.79
2022-09-26T18:35:27.766Z,14.81
2022-09-26T18:38:30.184Z,14.81
2022-09-26T18:41:32.918Z,14.65
2022-09-26T18:44:35.608Z,14.49
2022-09-26T18:47:45.233Z,14.21
2022-09-26T18:50:47.667Z,14.16
2022-09-26T18:53:50.008Z,14.28
2022-09-26T18:57:10.954Z,14.24
2022-09-26T19:00:13.221Z,14.08
2022-09-26T19:03:16.251Z,13.88
2022-09-26T19:06:23.155Z,13.92
2022-09-26T19:09:26.995Z,13.92
2022-09-26T19:12:31.357Z,13.92
2022-09-26T19:15:33.672Z,13.89
2022-09-26T19:18:36.393Z,13.91
2022-09-26T19:21:44.521Z,13.95
2022-09-26T19:24:56.116Z,14.09
2022-09-26T19:27:59.290Z,14.14
2022-09-26T19:31:03.607Z,14.06
2022-09-26T19:34:06.249Z,13.97
2022-09-26T19:37:13.047Z,14.01
2022-09-26T19:40:17.674Z,14.29
2022-09-26T19:43:21.501Z,14.37
2022-09-26T19:46:27.570Z,14.42
2022-09-26T19:49:31.999Z,14.63
2022-09-26T19:52:34.350Z,14.73
2022-09-26T19:55:36.768Z,14.76
2022-09-26T19:58:39.186Z,14.73
2022-09-26T20:01:44.045Z,14.70
2022-09-26T20:04:46.756Z,14.60
2022-09-26T20:07:49.066Z,14.65
2022-09-26T20:10:55.576Z,14.62
2022-09-26T20:14:16.435Z,14.57
2022-09-26T20:17:24.545Z,14.46
2022-09-26T20:20:27.759Z,14.37
2022-09-26T20:23:30.215Z,14.32
2022-09-26T20:26:33.595Z,14.37
2022-09-26T20:29:55.799Z,14.35
2022-09-26T20:32:59.130Z,14.29
2022-09-26T20:36:04.334Z,14.39
2022-09-26T20:39:12.006Z,14.43
2022-09-26T20:42:17.617Z,14.35
2022-09-26T20:45:24.855Z,14.39
2022-09-26T20:48:28.188Z,14.36
2022-09-26T20:51:35.129Z,14.35
2022-09-26T20:54:37.487Z,14.33
2022-09-26T20:57:40.230Z,14.15
2022-09-26T21:00:43.359Z,14.04
2022-09-26T21:03:50.842Z,14.09
2022-09-26T21:06:53.103Z,14.09
2022-09-26T21:09:55.372Z,14.00
2022-09-26T21:12:58.735Z,14.08
2022-09-26T21:16:01.190Z,14.02
2022-09-26T21:19:05.380Z,13.74
2022-09-26T21:22:10.944Z,13.91
2022-09-26T21:25:19.074Z,13.91
2022-09-26T21:28:26.719Z,13.89
2022-09-26T21:31:32.227Z,13.79
2022-09-26T21:34:34.918Z,13.78
2022-09-26T21:37:37.175Z,13.84
2022-09-26T21:40:42.726Z,13.81
2022-09-26T21:43:49.872Z,13.67
2022-09-26T21:46:52.140Z,13.78
2022-09-26T21:49:54.600Z,13.71
2022-09-26T21:53:04.813Z,13.89
2022-09-26T21:56:13.564Z,13.95
2022-09-26T21:59:18.876Z,13.97
2022-09-26T22:02:28.009Z,14.00
2022-09-26T22:05:31.346Z,14.06
2022-09-26T22:08:37.649Z,14.08
2022-09-26T22:11:40.347Z,14.08
2022-09-26T22:14:42.662Z,14.06
2022-09-26T22:17:44.941Z,14.05
2022-09-26T22:20:54.412Z,14.04
2022-09-26T22:23:56.885Z,14.01
2022-09-26T22:26:59.399Z,13.95
2022-09-26T22:30:02.273Z,13.97
2022-09-26T22:33:04.529Z,13.92
2022-09-26T22:36:07.152Z,13.92
2022-09-26T22:39:09.421Z,13.82
2022-09-26T22:42:12.003Z,13.51
2022-09-26T22:45:14.651Z,13.36
2022-09-26T22:48:17.127Z,13.26
2022-09-26T22:51:19.461Z,13.14
2022-09-26T22:54:22.097Z,13.07
2022-09-26T22:57:24.618Z,13.07
2022-09-26T23:00:27.231Z,13.00
2022-09-26T23:03:29.642Z,13.02
2022-09-26T23:06:32.076Z,13.02
2022-09-26T23:09:34.317Z,13.19
2022-09-26T23:12:40.456Z,13.32
2022-09-26T23:15:42.778Z,13.32
2022-09-26T23:18:45.240Z,13.36
2022-09-26T23:21:47.499Z,13.32
2022-09-26T23:24:49.732Z,13.32
2022-09-26T23:27:52.000Z,13.33
2022-09-26T23:30:54.260Z,13.36
2022-09-26T23:33:57.440Z,13.07
2022-09-26T23:36:59.672Z,12.99
2022-09-26T23:40:02.065Z,12.88
2022-09-26T23:43:04.313Z,12.76
2022-09-26T23:46:07.440Z,12.83
2022-09-26T23:49:09.852Z,13.00
2022-09-26T23:52:12.107Z,13.07
2022-09-26T23:55:14.479Z,12.97
2022-09-26T23:58:17.078Z,12.92
